Time;durP1;ratioP1;P1;durP2;ratioP2;P2;SDS_P1;SDS_P2;PMS_P1;PMS_P2;Temp;Humidity;BMP_temperature;BMP_pressure;BME280_temperature;BME280_humidity;BME280_pressure;Samples;Min_cycle;Max_cycle;Signal;HPM_P1;HPM_P2
2022/07/13 00:00:22;;;;;;;2.47;1.30;;;;;;;9.89;78.65;95976.80;1764261;81;21009;-66
2022/07/13 00:02:50;;;;;;;1.70;1.60;;;;;;;9.85;78.62;95976.38;1764226;81;21123;-66
2022/07/13 00:05:17;;;;;;;1.70;1.57;;;;;;;9.81;78.80;95975.55;1764208;81;21013;-66
2022/07/13 00:07:44;;;;;;;2.80;1.37;;;;;;;9.84;80.00;95978.60;1765894;81;20989;-66
2022/07/13 00:10:11;;;;;;;1.30;1.20;;;;;;;9.90;80.14;95967.56;1766860;81;20981;-66
2022/07/13 00:12:39;;;;;;;1.30;1.10;;;;;;;9.97;79.31;95967.91;1767135;81;21048;-66
2022/07/13 00:15:07;;;;;;;1.50;1.23;;;;;;;10.06;80.00;95967.41;1767036;81;21463;-66
2022/07/13 00:17:34;;;;;;;4.50;1.17;;;;;;;10.13;80.96;95959.41;1767229;81;21047;-66
2022/07/13 00:20:01;;;;;;;1.40;1.20;;;;;;;10.25;80.19;95957.06;1766835;81;21455;-66
2022/07/13 00:22:28;;;;;;;2.40;1.30;;;;;;;10.24;79.32;95951.38;1767178;81;20977;-66
2022/07/13 00:24:55;;;;;;;2.12;1.20;;;;;;;10.32;79.38;95950.86;1767229;81;21044;-66
2022/07/13 00:27:22;;;;;;;2.00;1.30;;;;;;;10.34;79.02;95950.86;1767394;81;20997;-66
2022/07/13 00:29:49;;;;;;;2.17;1.30;;;;;;;10.40;78.79;95945.04;1767132;81;20993;-66
2022/07/13 00:32:15;;;;;;;2.65;1.22;;;;;;;10.48;78.61;95947.61;1767195;81;21005;-66
2022/07/13 00:34:42;;;;;;;1.60;1.30;;;;;;;10.44;78.68;95941.07;1766766;81;21085;-66
2022/07/13 00:37:08;;;;;;;1.40;1.27;;;;;;;10.47;78.70;95939.70;1767039;81;20985;-66
2022/07/13 00:39:35;;;;;;;2.22;1.12;;;;;;;10.51;79.17;95931.73;1766933;81;21056;-66
2022/07/13 00:42:02;;;;;;;2.00;1.00;;;;;;;10.63;78.54;95929.81;1734566;81;20973;-66
2022/07/13 00:44:28;;;;;;;2.40;1.22;;;;;;;10.70;78.20;95931.03;1767106;81;20985;-66
2022/07/13 00:46:56;;;;;;;1.55;1.37;;;;;;;10.68;77.80;95930.63;1767168;81;21001;-66
2022/07/13 00:49:23;;;;;;;1.40;1.30;;;;;;;10.74;78.21;95931.87;1767218;81;21024;-66
2022/07/13 00:51:50;;;;;;;1.00;1.00;;;;;;;10.74;77.87;95923.51;1766943;81;21024;-66
2022/07/13 00:54:20;;;;;;;1.15;1.00;;;;;;;10.77;77.58;95919.95;1767536;81;21053;-66
2022/07/13 00:56:49;;;;;;;1.25;1.10;;;;;;;10.73;77.75;95920.42;1766730;81;21135;-66
2022/07/13 00:59:15;;;;;;;1.70;1.27;;;;;;;10.70;77.72;95919.16;1767367;81;21483;-66
2022/07/13 01:01:42;;;;;;;2.02;1.40;;;;;;;10.70;77.94;95915.65;1767333;81;21009;-66
2022/07/13 01:04:09;;;;;;;1.40;1.20;;;;;;;10.65;77.48;95917.03;1766570;81;21016;-66
2022/07/13 01:06:36;;;;;;;2.10;1.30;;;;;;;10.70;78.04;95922.25;1766762;81;22504;-66
2022/07/13 01:09:03;;;;;;;1.47;1.37;;;;;;;10.67;79.49;95914.38;1764094;81;21021;-66
2022/07/13 01:11:32;;;;;;;2.52;1.30;;;;;;;10.64;78.94;95913.11;1763873;81;21029;-66
2022/07/13 01:14:00;;;;;;;1.30;1.20;;;;;;;10.64;78.84;95906.52;1764310;81;21518;-66
2022/07/13 01:16:27;;;;;;;1.60;1.45;;;;;;;10.63;79.19;95906.06;1764077;81;21016;-66
2022/07/13 01:18:55;;;;;;;1.45;1.30;;;;;;;10.61;79.05;95906.98;1759165;81;21071;-66
2022/07/13 01:21:22;;;;;;;1.47;1.37;;;;;;;10.61;79.14;95899.06;1764161;81;21025;-66
2022/07/13 01:23:51;;;;;;;1.67;1.27;;;;;;;10.65;78.84;95901.20;1763952;81;20981;-66
2022/07/13 01:26:18;;;;;;;1.50;1.40;;;;;;;10.60;79.07;95895.11;1764120;81;21021;-66
2022/07/13 01:28:45;;;;;;;2.42;2.05;;;;;;;10.62;78.92;95899.92;1763937;81;21097;-66
2022/07/13 01:31:12;;;;;;;2.12;1.82;;;;;;;10.60;78.57;95892.47;1764074;81;21063;-66
2022/07/13 01:33:39;;;;;;;3.15;1.60;;;;;;;10.56;78.72;95892.97;1764222;81;21013;-66
2022/07/13 01:36:07;;;;;;;1.80;1.52;;;;;;;10.55;78.49;95891.20;1763968;81;20989;-66
2022/07/13 01:38:34;;;;;;;2.20;1.60;;;;;;;10.52;78.59;95890.39;1764149;81;21483;-66
2022/07/13 01:41:03;;;;;;;1.75;1.65;;;;;;;10.49;78.64;95882.53;1764189;81;21021;-66
2022/07/13 01:43:30;;;;;;;2.08;1.50;;;;;;;10.47;78.80;95883.85;1763805;81;21476;-66
2022/07/13 01:45:57;;;;;;;2.45;1.40;;;;;;;10.46;78.92;95880.80;1764290;81;20993;-66
2022/07/13 01:48:23;;;;;;;1.70;1.60;;;;;;;10.45;79.69;95876.40;1764101;81;21503;-66
2022/07/13 01:50:51;;;;;;;2.33;1.60;;;;;;;10.52;79.15;95871.47;1763963;81;21060;-66
2022/07/13 01:53:18;;;;;;;2.47;2.08;;;;;;;10.55;79.20;95871.42;1764267;81;21052;-66
2022/07/13 01:55:45;;;;;;;4.45;1.80;;;;;;;10.63;79.00;95877.91;1764164;81;21016;-66
2022/07/13 01:58:11;;;;;;;2.25;1.92;;;;;;;10.59;78.63;95869.17;1764441;81;21049;-66
2022/07/13 02:00:39;;;;;;;4.15;1.65;;;;;;;10.57;79.34;95873.59;1764164;81;21507;-66
2022/07/13 02:03:05;;;;;;;2.17;1.70;;;;;;;10.59;79.43;95870.95;1764178;81;21093;-66
2022/07/13 02:05:32;;;;;;;3.05;1.57;;;;;;;10.65;79.37;95872.16;1764130;81;21507;-66
2022/07/13 02:07:59;;;;;;;2.20;1.70;;;;;;;10.73;79.09;95874.70;1763894;80;21072;-66
2022/07/13 02:10:36;;;;;;;4.22;1.72;;;;;;;10.78;78.99;95876.81;1763923;81;21104;-66
2022/07/13 02:13:08;;;;;;;4.40;1.52;;;;;;;10.81;78.81;95876.34;1764256;81;21032;-66
2022/07/13 02:15:36;;;;;;;4.00;1.70;;;;;;;10.82;78.52;95873.25;1764083;81;21064;-66
2022/07/13 02:18:04;;;;;;;2.98;1.70;;;;;;;10.80;79.02;95876.35;1764354;81;21036;-66
2022/07/13 02:20:34;;;;;;;5.58;4.05;;;;;;;10.78;78.97;95872.41;1764028;81;20985;-66
2022/07/13 02:23:01;;;;;;;4.92;3.67;;;;;;;10.76;78.95;95874.64;1764334;81;21048;-66
2022/07/13 02:25:29;;;;;;;5.97;2.45;;;;;;;10.70;79.11;95874.75;1764073;81;20982;-66
2022/07/13 02:27:55;;;;;;;6.22;3.12;;;;;;;10.72;78.95;95867.69;1763909;81;21033;-66
2022/07/13 02:30:24;;;;;;;3.50;2.58;;;;;;;10.64;78.79;95866.93;1764397;81;21059;-66
2022/07/13 02:32:51;;;;;;;2.05;1.67;;;;;;;10.68;79.13;95866.84;1763946;81;21041;-65
2022/07/13 02:35:18;;;;;;;1.95;0.82;;;;;;;10.72;79.53;95861.09;1763748;81;21107;-66
2022/07/13 02:37:45;;;;;;;1.82;1.45;;;;;;;10.77;78.76;95863.20;1729854;81;21015;-66
2022/07/13 02:40:12;;;;;;;1.67;1.57;;;;;;;10.78;79.01;95864.48;1764513;81;21014;-66
2022/07/13 02:42:40;;;;;;;2.33;1.60;;;;;;;10.89;78.97;95860.39;1764330;81;21009;-66
2022/07/13 02:45:08;;;;;;;3.77;2.20;;;;;;;10.98;78.81;95863.31;1764281;81;20996;-66
2022/07/13 02:47:34;;;;;;;2.45;1.50;;;;;;;11.03;78.52;95860.16;1764223;81;21518;-66
2022/07/13 02:50:02;;;;;;;2.98;2.30;;;;;;;11.07;78.33;95863.17;1763751;81;21037;-66
2022/07/13 02:52:29;;;;;;;2.47;2.00;;;;;;;11.04;77.97;95866.73;1764253;81;21451;-66
2022/07/13 02:54:56;;;;;;;3.52;1.70;;;;;;;11.00;77.66;95862.84;1764026;81;20989;-66
2022/07/13 02:57:22;;;;;;;2.70;1.70;;;;;;;10.96;77.63;95865.09;1764316;81;21016;-66
2022/07/13 02:59:51;;;;;;;3.72;2.00;;;;;;;10.87;77.91;95871.86;1763960;81;21040;-66
2022/07/13 03:02:18;;;;;;;3.02;1.90;;;;;;;10.79;77.95;95878.13;1764236;81;20973;-66
2022/07/13 03:04:46;;;;;;;3.02;1.85;;;;;;;10.65;78.98;95872.16;1763693;81;21088;-66
2022/07/13 03:07:13;;;;;;;3.35;1.90;;;;;;;10.59;79.10;95878.87;1764814;81;21013;-66
2022/07/13 03:09:40;;;;;;;3.40;2.30;;;;;;;10.52;79.90;95885.12;1767289;81;21004;-66
2022/07/13 03:12:07;;;;;;;5.12;2.37;;;;;;;10.53;80.32;95886.84;1767276;81;21000;-66
2022/07/13 03:14:34;;;;;;;5.92;2.85;;;;;;;10.52;79.12;95873.24;1766835;81;21104;-66
2022/07/13 03:17:01;;;;;;;3.60;2.98;;;;;;;10.53;79.40;95876.30;1734558;81;21008;-66
2022/07/13 03:19:28;;;;;;;6.22;3.50;;;;;;;10.59;79.30;95874.45;1766803;81;21029;-66
2022/07/13 03:21:55;;;;;;;10.90;7.00;;;;;;;10.69;79.40;95873.02;1766916;81;21459;-66
2022/07/13 03:24:22;;;;;;;12.30;7.95;;;;;;;10.77;79.57;95867.17;1766711;81;20977;-66
2022/07/13 03:26:49;;;;;;;10.78;5.58;;;;;;;10.85;79.15;95864.41;1767201;81;20992;-66
2022/07/13 03:29:17;;;;;;;9.98;5.87;;;;;;;10.96;79.04;95867.73;1766848;81;20999;-66
2022/07/13 03:31:43;;;;;;;10.72;6.17;;;;;;;11.08;78.97;95868.00;1767198;81;21044;-66
2022/07/13 03:34:10;;;;;;;6.65;4.35;;;;;;;11.19;78.37;95866.08;1767128;81;21012;-66
2022/07/13 03:36:37;;;;;;;7.58;4.58;;;;;;;11.32;77.70;95857.50;1766963;81;21012;-66
2022/07/13 03:39:04;;;;;;;7.75;5.28;;;;;;;11.38;76.99;95853.41;1767142;81;21025;-66
2022/07/13 03:41:32;;;;;;;5.20;2.83;;;;;;;11.48;77.36;95852.34;1767155;81;20997;-66
2022/07/13 03:43:59;;;;;;;2.80;1.70;;;;;;;11.53;75.64;95850.49;1766888;81;21096;-66
2022/07/13 03:46:26;;;;;;;1.80;1.40;;;;;;;11.59;74.95;95844.22;1767266;81;21024;-66
2022/07/13 03:48:53;;;;;;;1.85;1.67;;;;;;;11.59;74.70;95846.43;1767241;81;21009;-66
2022/07/13 03:51:20;;;;;;;2.70;1.77;;;;;;;11.69;74.80;95840.50;1767241;81;21008;-66
2022/07/13 03:53:48;;;;;;;3.45;1.60;;;;;;;11.80;75.03;95831.06;1767160;81;21033;-66
2022/07/13 03:56:14;;;;;;;4.00;1.72;;;;;;;11.82;75.05;95835.42;1767074;81;21067;-66
2022/07/13 03:58:41;;;;;;;3.65;1.52;;;;;;;11.80;74.70;95840.31;1767232;81;21026;-66
2022/07/13 04:01:08;;;;;;;3.45;1.95;;;;;;;11.74;74.62;95843.92;1767289;81;21044;-66
2022/07/13 04:03:35;;;;;;;3.25;1.80;;;;;;;11.74;74.75;95837.31;1767062;81;21064;-66
2022/07/13 04:06:03;;;;;;;2.90;2.00;;;;;;;11.75;74.62;95842.17;1766987;81;21009;-66
2022/07/13 04:08:30;;;;;;;2.95;2.10;;;;;;;11.73;74.59;95841.33;1766790;81;21143;-66
2022/07/13 04:10:57;;;;;;;2.60;1.70;;;;;;;11.76;74.97;95834.20;1767203;81;21016;-66
2022/07/13 04:13:24;;;;;;;3.37;1.80;;;;;;;11.72;75.57;95832.53;1767224;81;21005;-66
2022/07/13 04:15:51;;;;;;;2.87;1.87;;;;;;;11.69;76.11;95836.53;1767190;81;21025;-66
2022/07/13 04:18:18;;;;;;;2.35;1.90;;;;;;;11.70;76.91;95834.33;1766836;81;21033;-66
2022/07/13 04:20:45;;;;;;;5.35;2.33;;;;;;;11.69;76.80;95841.81;1766969;81;21037;-66
2022/07/13 04:23:12;;;;;;;3.20;1.98;;;;;;;11.74;76.76;95832.03;1767046;81;20982;-66
2022/07/13 04:25:40;;;;;;;9.98;2.55;;;;;;;11.77;76.56;95834.63;1764734;81;21731;-66
2022/07/13 04:28:07;;;;;;;2.42;2.20;;;;;;;11.82;76.69;95823.98;1766833;81;21061;-66
2022/07/13 04:30:34;;;;;;;2.47;2.20;;;;;;;11.87;76.73;95817.72;1766854;81;21112;-66
2022/07/13 04:33:01;;;;;;;3.95;2.22;;;;;;;11.95;77.31;95832.11;1766868;81;21064;-66
2022/07/13 04:35:28;;;;;;;5.65;1.98;;;;;;;12.03;77.20;95825.34;1766957;81;21502;-66
2022/07/13 04:37:55;;;;;;;3.00;2.00;;;;;;;12.13;76.91;95827.75;1767114;81;21005;-66
2022/07/13 04:40:22;;;;;;;3.70;2.47;;;;;;;12.24;76.84;95830.63;1767161;81;21467;-66
2022/07/13 04:42:49;;;;;;;5.60;2.17;;;;;;;12.33;76.75;95829.98;1766961;81;21017;-66
2022/07/13 04:45:18;;;;;;;4.50;2.25;;;;;;;12.41;77.00;95828.48;1767145;81;21495;-66
2022/07/13 04:47:46;;;;;;;2.15;1.82;;;;;;;12.50;76.65;95834.91;1767083;81;21016;-66
2022/07/13 04:50:13;;;;;;;4.42;2.30;;;;;;;12.61;76.78;95836.44;1766900;81;20988;-66
2022/07/13 04:52:40;;;;;;;7.10;2.72;;;;;;;12.71;76.53;95832.22;1767289;81;20993;-66
2022/07/13 04:55:09;;;;;;;4.75;2.25;;;;;;;12.84;76.31;95836.77;1766689;81;21021;-66
2022/07/13 04:57:37;;;;;;;5.95;2.20;;;;;;;12.93;75.97;95842.33;1767215;81;21518;-66
2022/07/13 05:00:06;;;;;;;7.37;2.37;;;;;;;13.06;76.07;95841.57;1767407;81;21346;-66
2022/07/13 05:02:33;;;;;;;9.78;2.95;;;;;;;13.19;75.91;95839.89;1734653;81;21008;-66
2022/07/13 05:05:00;;;;;;;5.03;2.20;;;;;;;13.34;75.67;95827.20;1767213;81;20973;-66
2022/07/13 05:07:28;;;;;;;4.45;2.20;;;;;;;13.47;75.12;95833.06;1766481;81;21044;-66
2022/07/13 05:09:56;;;;;;;8.73;3.50;;;;;;;13.58;74.56;95842.48;1766585;81;21060;-66
2022/07/13 05:12:23;;;;;;;8.23;2.77;;;;;;;13.75;73.99;95833.19;1767151;81;21495;-66
2022/07/13 05:14:50;;;;;;;7.92;2.20;;;;;;;13.92;74.36;95828.76;1767096;81;21021;-66
2022/07/13 05:17:17;;;;;;;11.12;1.70;;;;;;;14.03;74.13;95827.52;1734354;81;21001;-66
2022/07/13 05:19:44;;;;;;;7.33;2.40;;;;;;;14.18;73.10;95822.70;1767082;81;21502;-66
2022/07/13 05:22:11;;;;;;;8.43;1.90;;;;;;;14.38;73.11;95822.11;1767006;81;20989;-66
2022/07/13 05:24:43;;;;;;;7.62;2.12;;;;;;;14.55;73.01;95822.98;1766951;81;20985;-66
2022/07/13 05:27:06;;;;;;;7.28;1.85;;;;;;;14.67;72.39;95818.62;1766273;81;21032;-66
2022/07/13 05:29:33;;;;;;;3.87;1.55;;;;;;;14.79;72.24;95824.88;1767240;81;21009;-66
2022/07/13 05:32:00;;;;;;;4.50;1.85;;;;;;;14.88;69.94;95821.05;1766798;81;21455;-66
2022/07/13 05:34:26;;;;;;;4.87;1.27;;;;;;;14.99;69.90;95822.02;1767377;81;20989;-66
2022/07/13 05:36:55;;;;;;;7.05;1.20;;;;;;;15.09;69.18;95830.11;1767106;81;21048;-66
2022/07/13 05:39:22;;;;;;;3.47;0.85;;;;;;;15.22;69.58;95835.45;1767425;81;21012;-66
2022/07/13 05:41:48;;;;;;;2.40;0.70;;;;;;;15.33;69.29;95837.75;1766912;81;21005;-66
2022/07/13 05:44:15;;;;;;;3.83;0.78;;;;;;;15.61;67.49;95836.34;1767132;81;20976;-66
2022/07/13 05:46:42;;;;;;;1.95;0.70;;;;;;;15.61;67.49;95836.34;1767164;81;21005;-66
2022/07/13 05:49:09;;;;;;;0.78;0.60;;;;;;;15.76;65.80;95831.86;1734173;81;21515;-66
2022/07/13 05:51:36;;;;;;;0.75;0.60;;;;;;;16.03;57.32;95830.91;1767001;81;20996;-66
2022/07/13 05:54:04;;;;;;;1.57;0.53;;;;;;;16.03;57.32;95830.91;1767024;81;21502;-66
2022/07/13 05:56:33;;;;;;;0.68;0.30;;;;;;;16.22;56.86;95831.98;1767138;81;21008;-66
2022/07/13 05:59:00;;;;;;;1.05;0.50;;;;;;;16.36;56.61;95837.68;1767000;81;21052;-66
2022/07/13 06:01:27;;;;;;;0.93;0.50;;;;;;;16.53;58.92;95834.39;1766995;81;21048;-66
2022/07/13 06:03:53;;;;;;;1.67;0.50;;;;;;;16.70;53.86;95832.86;1767150;81;21319;-66
2022/07/13 06:06:20;;;;;;;1.55;0.50;;;;;;;16.84;55.58;95830.56;1766858;81;21024;-66
2022/07/13 06:08:47;;;;;;;0.47;0.40;;;;;;;16.99;54.51;95830.42;1732127;81;21052;-66
2022/07/13 06:11:13;;;;;;;0.68;0.57;;;;;;;17.14;50.87;95834.27;1764087;81;21017;-66
2022/07/13 06:13:41;;;;;;;0.40;0.40;;;;;;;17.27;51.42;95830.16;1764063;81;21020;-66
2022/07/13 06:16:08;;;;;;;2.15;0.50;;;;;;;17.47;53.67;95832.01;1763967;81;21005;-66
2022/07/13 06:18:35;;;;;;;0.50;0.50;;;;;;;17.70;52.91;95831.03;1764056;81;20996;-66
2022/07/13 06:21:02;;;;;;;1.72;0.60;;;;;;;17.89;52.40;95829.78;1763992;81;20996;-66
2022/07/13 06:23:29;;;;;;;0.85;0.53;;;;;;;18.03;54.26;95835.87;1764177;81;20996;-66
2022/07/13 06:25:55;;;;;;;0.70;0.60;;;;;;;18.03;49.17;95827.39;1764295;81;21029;-66
2022/07/13 06:28:22;;;;;;;1.90;0.50;;;;;;;18.05;49.47;95821.99;1764213;81;21033;-66
2022/07/13 06:30:48;;;;;;;0.88;0.68;;;;;;;18.09;48.99;95821.80;1764281;81;20997;-66
2022/07/13 06:33:15;;;;;;;2.40;0.50;;;;;;;18.21;50.08;95823.02;1764207;81;20962;-66
2022/07/13 06:35:42;;;;;;;2.02;0.50;;;;;;;18.23;47.48;95814.95;1763946;81;21040;-66
2022/07/13 06:38:08;;;;;;;0.50;0.50;;;;;;;18.25;47.92;95818.43;1764211;81;21005;-66
2022/07/13 06:40:36;;;;;;;0.50;0.50;;;;;;;18.23;47.92;95813.14;1763698;81;21105;-66
2022/07/13 06:43:02;;;;;;;2.75;0.50;;;;;;;18.33;48.39;95817.61;1764159;81;21040;-66
2022/07/13 06:45:29;;;;;;;3.60;0.60;;;;;;;18.48;47.58;95822.25;1764360;81;21492;-66
2022/07/13 06:47:56;;;;;;;2.37;0.60;;;;;;;18.54;48.40;95830.44;1764340;81;20988;-66
2022/07/13 06:50:23;;;;;;;0.68;0.50;;;;;;;18.69;47.17;95822.18;1764146;81;20977;-66
2022/07/13 06:52:49;;;;;;;1.25;0.50;;;;;;;18.92;47.79;95823.31;1764495;81;20946;-66
2022/07/13 06:55:16;;;;;;;0.47;0.42;;;;;;;19.03;47.31;95822.34;1763838;81;21040;-66
2022/07/13 06:57:43;;;;;;;2.02;0.60;;;;;;;19.16;45.31;95815.93;1764485;81;21029;-66
2022/07/13 07:00:12;;;;;;;0.57;0.50;;;;;;;19.30;45.20;95829.09;1764198;81;21036;-66
2022/07/13 07:02:38;;;;;;;0.60;0.50;;;;;;;19.26;45.87;95828.39;1764132;81;21436;-66
2022/07/13 07:05:09;;;;;;;0.72;0.60;;;;;;;19.19;44.96;95811.76;1764488;81;21000;-66
2022/07/13 07:07:37;;;;;;;0.57;0.57;;;;;;;19.27;45.53;95822.56;1764055;81;21020;-66
2022/07/13 07:10:06;;;;;;;0.50;0.50;;;;;;;19.32;44.76;95821.86;1764174;81;21032;-66
2022/07/13 07:12:33;;;;;;;0.90;0.60;;;;;;;19.43;45.45;95808.83;1764223;81;21021;-66
2022/07/13 07:15:00;;;;;;;0.70;0.70;;;;;;;19.56;46.54;95812.61;1764392;81;21021;-66
2022/07/13 07:17:26;;;;;;;1.62;0.68;;;;;;;19.76;46.15;95821.01;1764173;81;20957;-66
2022/07/13 07:19:59;;;;;;;0.70;0.70;;;;;;;19.87;45.73;95811.08;1764523;81;20992;-66
2022/07/13 07:22:27;;;;;;;0.93;0.53;;;;;;;20.02;45.56;95821.47;1763903;81;21045;-66
2022/07/13 07:24:53;;;;;;;1.92;0.68;;;;;;;20.18;45.04;95810.32;1764156;81;21056;-66
2022/07/13 07:27:20;;;;;;;4.10;0.80;;;;;;;20.26;43.71;95824.20;1764470;81;20981;-66
2022/07/13 07:29:46;;;;;;;1.35;0.68;;;;;;;20.42;45.51;95810.83;1764297;81;21005;-66
2022/07/13 07:32:13;;;;;;;1.20;0.70;;;;;;;20.63;44.59;95822.23;1764044;81;20977;-66
2022/07/13 07:34:40;;;;;;;0.82;0.75;;;;;;;20.74;42.33;95814.48;1764375;81;21037;-66
2022/07/13 07:37:07;;;;;;;3.37;1.17;;;;;;;20.83;42.56;95817.59;1764063;81;21001;-66
2022/07/13 07:39:36;;;;;;;0.60;0.60;;;;;;;20.89;42.30;95810.08;1764378;81;21463;-66
2022/07/13 07:42:04;;;;;;;4.33;1.98;;;;;;;21.01;42.49;95816.55;1764289;81;20997;-66
2022/07/13 07:44:32;;;;;;;1.02;0.62;;;;;;;21.14;43.05;95816.27;1763901;81;21020;-66
2022/07/13 07:46:59;;;;;;;1.55;0.95;;;;;;;21.32;41.72;95818.38;1764166;81;21013;-66
2022/07/13 07:49:25;;;;;;;2.17;0.75;;;;;;;21.48;42.59;95821.55;1764241;81;21494;-66
2022/07/13 07:51:52;;;;;;;1.70;0.70;;;;;;;21.73;41.56;95812.91;1763903;81;21048;-66
2022/07/13 07:54:19;;;;;;;4.47;1.10;;;;;;;21.89;41.84;95819.58;1764370;81;20949;-66
2022/07/13 07:56:45;;;;;;;4.78;0.90;;;;;;;21.95;41.89;95820.56;1764334;81;21538;-66
2022/07/13 07:59:12;;;;;;;3.90;0.93;;;;;;;22.03;40.38;95822.31;1764284;81;20998;-66
2022/07/13 08:01:39;;;;;;;3.50;0.80;;;;;;;21.97;40.77;95826.23;1764261;81;21013;-66
2022/07/13 08:04:06;;;;;;;2.17;0.72;;;;;;;22.11;41.59;95814.64;1764149;81;21021;-66
2022/07/13 08:06:32;;;;;;;3.40;0.70;;;;;;;22.39;40.83;95816.53;1763543;81;21025;-67
2022/07/13 08:08:59;;;;;;;2.67;0.90;;;;;;;22.27;39.37;95820.45;1765323;81;21028;-66
2022/07/13 08:11:26;;;;;;;6.00;1.47;;;;;;;22.16;38.19;95811.19;1766748;81;21025;-66
2022/07/13 08:13:53;;;;;;;1.15;0.80;;;;;;;22.34;39.57;95826.70;1767242;81;20961;-66
2022/07/13 08:16:20;;;;;;;0.95;0.72;;;;;;;22.36;37.48;95826.13;1767178;81;21056;-66
2022/07/13 08:18:48;;;;;;;0.78;0.70;;;;;;;22.31;37.80;95812.59;1767160;81;21012;-66
2022/07/13 08:21:15;;;;;;;1.75;0.60;;;;;;;22.34;36.51;95825.36;1767344;81;21474;-66
2022/07/13 08:23:51;;;;;;;1.82;0.90;;;;;;;21.76;36.84;95811.38;1767141;81;21016;-66
2022/07/13 08:26:25;;;;;;;1.85;0.80;;;;;;;21.67;38.98;95819.52;1766804;81;21021;-66
2022/07/13 08:28:52;;;;;;;1.00;0.72;;;;;;;21.65;38.60;95822.77;1767439;81;21000;-66
2022/07/13 08:31:21;;;;;;;1.92;0.50;;;;;;;21.44;37.87;95825.35;1767170;81;21526;-66
2022/07/13 08:39:22;;;;;;;2.00;0.80;;;;;;;21.12;37.54;95826.22;1767221;81;21451;-66
2022/07/13 08:41:49;;;;;;;1.32;0.88;;;;;;;21.17;39.13;95822.80;1767088;81;21487;-66
2022/07/13 08:44:16;;;;;;;1.80;0.50;;;;;;;21.36;39.17;95817.70;1767395;81;21048;-66
2022/07/13 08:46:43;;;;;;;2.98;0.80;;;;;;;21.41;37.21;95830.91;1766671;81;20981;-66
2022/07/13 08:49:11;;;;;;;5.12;0.70;;;;;;;21.69;37.29;95810.88;1767364;81;21025;-66
2022/07/13 08:51:40;;;;;;;0.53;0.53;;;;;;;21.96;35.24;95811.05;1767040;81;21036;-66
2022/07/13 08:54:07;;;;;;;3.30;0.70;;;;;;;22.32;35.44;95822.38;1767019;81;20989;-66
2022/07/13 08:56:33;;;;;;;4.72;0.70;;;;;;;22.30;34.61;95811.73;1767198;81;21013;-66
2022/07/13 08:59:00;;;;;;;0.60;0.60;;;;;;;22.26;35.34;95816.91;1767359;81;21040;-66
2022/07/13 09:01:27;;;;;;;1.80;0.65;;;;;;;22.41;35.66;95813.27;1767087;81;20977;-66
2022/07/13 09:03:53;;;;;;;2.92;0.70;;;;;;;22.54;35.59;95812.02;1766861;81;21515;-66
2022/07/13 09:06:48;;;;;;;0.78;0.70;;;;;;;22.77;35.59;95811.92;1767190;81;21048;-66
2022/07/13 09:09:33;;;;;;;2.15;0.72;;;;;;;22.72;33.44;95817.21;1765717;81;21036;-66
2022/07/13 09:12:21;;;;;;;3.08;0.60;;;;;;;22.93;34.35;95831.11;1764219;81;21511;-66
2022/07/13 09:15:06;;;;;;;2.02;0.60;;;;;;;23.02;34.08;95826.53;1764037;81;21104;-66
2022/07/13 09:17:45;;;;;;;7.25;1.00;;;;;;;23.39;33.07;95810.20;1764123;81;21056;-66
2022/07/13 09:20:17;;;;;;;1.22;0.60;;;;;;;23.54;31.98;95806.48;1764158;81;21439;-66
2022/07/13 09:22:59;;;;;;;0.88;0.60;;;;;;;23.85;33.81;95808.49;1763952;81;21013;-66
2022/07/13 09:25:35;;;;;;;1.25;0.80;;;;;;;23.88;33.21;95813.66;1764161;81;21001;-66
2022/07/13 09:28:10;;;;;;;1.17;0.62;;;;;;;23.69;33.24;95820.77;1760482;81;21563;-67
2022/07/13 09:30:43;;;;;;;0.65;0.65;;;;;;;23.78;32.45;95811.22;1763927;81;21012;-67
2022/07/13 09:33:10;;;;;;;0.82;0.60;;;;;;;23.46;32.96;95826.34;1764105;81;21049;-66
2022/07/13 09:35:48;;;;;;;0.50;0.50;;;;;;;23.53;32.54;95820.91;1763983;81;21040;-66
2022/07/13 09:38:36;;;;;;;3.02;0.70;;;;;;;23.73;30.76;95807.97;1763998;81;21029;-67
2022/07/13 09:41:27;;;;;;;1.85;0.70;;;;;;;24.06;31.04;95805.30;1764156;81;20985;-67
2022/07/13 09:47:01;;;;;;;3.45;0.80;;;;;;;24.14;31.32;95802.47;1764478;81;20976;-67
2022/07/13 09:49:41;;;;;;;0.78;0.53;;;;;;;24.03;31.36;95810.41;1764125;81;21004;-67
2022/07/13 09:52:19;;;;;;;1.37;0.72;;;;;;;23.89;32.04;95810.48;1764023;81;21029;-66
2022/07/13 09:54:51;;;;;;;0.62;0.57;;;;;;;24.37;30.72;95805.40;1762906;81;20965;-67
2022/07/13 09:57:22;;;;;;;0.50;0.50;;;;;;;24.89;30.67;95800.84;1764030;81;21013;-67
2022/07/13 09:59:49;;;;;;;1.25;0.60;;;;;;;25.06;28.24;95795.08;1764269;81;21511;-67
2022/07/13 10:02:16;;;;;;;2.05;0.60;;;;;;;25.11;28.24;95791.56;1764110;81;20993;-67
2022/07/13 10:04:46;;;;;;;1.60;0.72;;;;;;;24.99;28.25;95801.41;1763982;81;21008;-67
2022/07/13 10:07:13;;;;;;;3.72;0.78;;;;;;;25.07;28.49;95790.05;1764163;81;21022;-67
2022/07/13 10:09:40;;;;;;;1.17;0.50;;;;;;;24.99;27.78;95790.61;1764269;81;21008;-67
2022/07/13 10:12:08;;;;;;;2.83;0.60;;;;;;;24.96;28.75;95800.28;1764037;81;21455;-67
2022/07/13 10:14:36;;;;;;;1.75;1.02;;;;;;;25.27;27.82;95788.62;1764289;81;21542;-67
2022/07/13 10:17:14;;;;;;;1.00;0.62;;;;;;;25.44;26.29;95799.03;1764235;81;21463;-67
2022/07/13 10:19:52;;;;;;;0.45;0.45;;;;;;;25.57;25.98;95787.31;1764127;81;21048;-67
2022/07/13 10:22:26;;;;;;;1.25;0.68;;;;;;;25.74;25.51;95799.56;1750441;81;20989;-66
2022/07/13 10:24:58;;;;;;;0.60;0.50;;;;;;;25.80;25.56;95784.22;1764031;81;21053;-67
2022/07/13 10:27:31;;;;;;;2.05;0.65;;;;;;;26.05;26.26;95788.14;1764414;81;21040;-67
2022/07/13 10:30:09;;;;;;;0.90;0.78;;;;;;;26.21;26.65;95801.36;1764373;81;21005;-67
2022/07/13 10:32:39;;;;;;;0.85;0.72;;;;;;;26.51;26.46;95791.80;1764177;81;20972;-67
2022/07/13 10:35:20;;;;;;;2.47;0.50;;;;;;;26.58;26.35;95790.38;1764023;81;21012;-67
2022/07/13 10:38:02;;;;;;;1.52;0.60;;;;;;;26.60;25.38;95792.47;1763229;81;21008;-67
2022/07/13 10:40:34;;;;;;;0.75;0.60;;;;;;;26.53;24.42;95784.47;1764255;81;21057;-67
2022/07/13 10:43:06;;;;;;;0.75;0.50;;;;;;;26.66;26.05;95784.34;1764768;81;21016;-67
2022/07/13 10:45:40;;;;;;;3.02;0.70;;;;;;;26.92;25.39;95784.48;1764506;81;20993;-67
2022/07/13 10:48:30;;;;;;;1.15;0.42;;;;;;;26.54;25.15;95794.33;1764230;81;20997;-67
2022/07/13 10:50:58;;;;;;;2.75;0.60;;;;;;;26.39;25.44;95790.95;1762492;81;21487;-67
2022/07/13 10:53:50;;;;;;;;;;;;;;;25.89;25.65;95791.67;1766484;81;21068;-67
2022/07/13 10:56:23;;;;;;;2.00;0.50;;;;;;;26.04;27.03;95785.58;1766906;81;20117;-67
2022/07/13 10:58:51;;;;;;;3.87;0.60;;;;;;;26.13;25.93;95787.55;1767190;81;21052;-67
2022/07/13 11:01:43;;;;;;;5.87;0.80;;;;;;;26.44;25.53;95784.69;1767047;81;21001;-67
2022/07/13 11:04:14;;;;;;;6.03;0.60;;;;;;;26.70;25.64;95785.34;1767305;81;20969;-67
2022/07/13 11:06:41;;;;;;;0.85;0.40;;;;;;;26.94;24.50;95790.64;1764363;81;21452;-67
2022/07/13 11:09:21;;;;;;;0.60;0.42;;;;;;;26.97;24.16;95794.45;1763545;81;21075;-67
2022/07/13 11:11:53;;;;;;;0.70;0.50;;;;;;;27.27;23.97;95779.44;1764238;81;21009;-67
2022/07/13 11:14:42;;;;;;;;;;;;;;;27.45;23.96;95776.20;1766669;81;21036;-67
2022/07/13 11:17:19;;;;;;;0.85;0.50;;;;;;;27.69;22.22;95778.19;1732499;83;20104;-67
2022/07/13 11:20:10;;;;;;;1.35;0.40;;;;;;;27.80;21.64;95774.09;1763675;81;21037;-67
2022/07/13 11:25:55;;;;;;;1.32;0.60;;;;;;;27.78;20.93;95769.29;1763894;81;21103;-67
2022/07/13 11:28:30;;;;;;;1.60;0.50;;;;;;;27.81;21.45;95778.55;1764134;81;21025;-67
2022/07/13 11:30:57;;;;;;;1.15;0.50;;;;;;;27.77;22.52;95766.23;1764213;81;21530;-67
2022/07/13 11:33:24;;;;;;;0.60;0.60;;;;;;;27.15;22.21;95770.92;1763970;81;21127;-67
2022/07/13 11:35:51;;;;;;;0.98;0.60;;;;;;;26.68;23.62;95785.09;1764197;81;20985;-67
2022/07/13 11:38:19;;;;;;;0.70;0.70;;;;;;;26.27;25.61;95771.62;1764293;81;20957;-67
2022/07/13 11:40:47;;;;;;;1.95;0.70;;;;;;;26.17;26.67;95781.43;1764177;81;21016;-67
2022/07/13 11:43:14;;;;;;;1.20;0.70;;;;;;;26.09;26.85;95781.53;1764175;81;21478;-67
2022/07/13 11:45:42;;;;;;;2.60;0.80;;;;;;;25.68;27.37;95772.02;1763927;81;21085;-67
2022/07/13 11:48:12;;;;;;;1.10;0.75;;;;;;;25.19;28.64;95773.48;1764310;81;21028;-67
2022/07/13 11:50:48;;;;;;;1.70;0.72;;;;;;;25.07;28.86;95785.14;1763816;81;20981;-67
2022/07/13 11:53:27;;;;;;;4.10;0.80;;;;;;;25.32;28.27;95770.23;1764119;81;21048;-67